Airfield :
LOGIN :

Register | Disclaimer

   EN    FR    IT 

 










Legend :    VFR   Marginal VFR   IFR   Intensive IFR   Very Intensive IFR
Visi :
Ceiling :
>= 8 km
>= 3000ft
5 to 8 km
1000 to 3000 ft
1500m to 5 km
500 to 1000 ft
800 to 1500m
200 to 500 ft
< 800m
< 200 ft
Symbols :   Thunderstorms  Fog  Heavy snow  Heavy precipitations  Wind > 20 kt
SIGMETs :     Misc.  Thunderstorms  Icing  Turbulence  Mountain Waves  Volcanic Ashes







- Airport Elevation : 233 ft
- IATA code : REU


LERS - Reus Tarragona

CURRENT METAR :
  • 181700Z 06005KT 9999 FEW025CB SCT035 BKN050 19/16 Q1010

EXPIRED METARs :
  • 181630Z 05004KT 360V090 9999 FEW025CB BKN035 OVC050 19/16 Q1010
  • 181600Z 36008KT 9999 -RA FEW025CB BKN035 OVC050 19/16 Q1010
  • 181544Z 36009KT 8000 RA FEW025CB BKN035 OVC050 19/16 Q1010 RETS
  • 181530Z 36008KT 8000 TSRA FEW025CB BKN035 OVC050 19/15 Q1010
  • 181500Z 36008KT 8000 -RA FEW025CB BKN035 OVC050 19/15 Q1010
  • 181430Z 36008KT 8000 -RA FEW025TCU BKN035 OVC050 19/16 Q1010

TAF TAF LERS
Valid from the 18 at 15:00 until the 19 at 15:00 UTC


181400Z 1815/1915 05010KT 9999 SCT025 TX23/1912Z TN16/1906Z
TEMPO 1815/1915 SHRA SCT020TCU BKN030
PROB40
TEMPO 1815/1915 4000 TSRA SCT020 SCT025CB
No reported NOTAMs for that airfield.
1 SIGMET reported for the Barcelona FIR (LECB) :
 
Embedded thunderstorms
LECB SIGMET 7 VALID 181611/181800 LEVA
LECB BARCELONA FIR/UIR EMBD TS OBS AT 1611Z WI N4140 E00030 - N3940 E00420 - N3640 W00140 - N4140 E00030 TOP FL320 MOV W 10KT NC=



MET'MAP, your aeronautical weather chart ! - Copyright ORBIFLY December 2007 - Disclaimer

ORBIFLY MET'MAP TEAM :

Programming & Development : Alexandra Zaïnal
Concept & Development : Baudouin d'Aumeries
Co-Development & Prog : Marc-Olivier Méhu
Technical & hardware support : Manuel Goepfert

Contact : metmap@orbifly.com




SOURCES & CREDITS :

   NOAA